Airport Name : Lishe

Other Name : Ningbo

ICAO : ZSNB

IATA : NGB

FAA :

Latitude : 29.824944

Longitude : 121.465069

Country : China

Local Date and Time : 7/23/2018 9:45:00 PM

 

TAF (Terminal Aerodrome Forecast)

TAF ZSNB 230815Z 2312/2412 17004MPS 6000 BKN030 TX34/2406Z TN26/2321Z

 

METAR (METeorological Aerodrome Report)

ZSNB 231300Z 19003MPS 160V220 9999 SCT030 26/25 Q1002 NOSIG

ZSNB 231200Z 14002MPS 110V170 9999 FEW010 SCT030 26/25 Q1001 NOSIG

ZSNB 231100Z VRB01MPS 9999 -SHRA FEW010 SCT023 FEW030CB 26/25 Q1001 RETS NOSIG

ZSNB 231000Z 03003MPS 350V070 4000 -TSRA SCT005 BKN023 SCT030CB 26/26 Q1001 RESHRA BECMG TL1040 -SHRA